Jamestown, Missouri
Current Conditions -  °F | °C
As of 6:54 AM on Monday 22 Dec 2014 (Local Time) from KCOU Reporting Station
Overcast Overcast  
Wind Chill: 34°   Ceiling: 1400
Heat Index: 40°   Visibility: 7mi
Dew Point: 38°   Wind: 9mph
Humidity: 93%   Direction: 120°ESE
Pressure: 29.69"   Gusts: NA
Location:  38.77°N, 92.48°W
Report Text: KCOU 221254Z 12008KT 7SM OVC014 04/03 A2969 RMK AO2 RAE1156B30E39 SLP057 P0000 T00440033
Loading
Personal Weather Stations






























Interactive Weather Map New forecast layout! Learn more

10-Day Weather Forecast

Advertisements
Track Severe Weather on mobile